PWSweather.com
Personal Weather Stations
Station Observations
79674
AfterstegDE 79674

AfterstegDE 79674

Lat: 47.84344, Lon: 7.92844

Elevation: 809

Station Type: Davis Vantage 2 Aktive

Latest ConditionsUpdated 3:27:06 PM GMT+01:01 Thursday, Mar 5, 2015
Currently Today's Max Today's Min Today's Average
Temperature 37.6°F3.1°C 39.2°F4.0°C 30.4°F-0.9°C 32.7°F0.4°C
Dew Point 27.3°F-2.6°C 28.8°F-1.8°C 25.9°F-3.4°C 27.3°F-2.6°C
Winds 4.0 mph WNW6.4 kmh WNW 8.9 mph NW14.3 kmh NW - 5.2 mph 8.4 kmh
Wind Gusts 4.0 mph6.4 kmh 11.0 mph17.7 kmh - -
Humidity 66% 88% 61% 81%
Pressure 30.62 in1036.9 mb 30.64 in1037.6 mb 30.52 in1033.5 mb -
Precipitation - 0.01 in0.3 mm - -
Hour Temp Dew Point Humidity Winds Wind Gusts Pressure Precip Precip Rate Daily Precip Total
03:27 PM 37.6°F3.1°C 27.3°F-2.6°C 66% 4.0 mph WNW6.4 kmh WNW 4.0 mph6.4 kmh 30.62 in1036.9 mb 0.00 in0.0 mm 0.00 in/hr0.0 mm/hr 0.01 in0.3 mm
03:22 PM 37.6°F3.1°C 27.0°F-2.8°C 65% 4.0 mph NW6.4 kmh NW 2.0 mph3.2 kmh 30.62 in1036.9 mb 0.00 in0.0 mm 0.00 in/hr0.0 mm/hr 0.01 in0.3 mm
03:17 PM 37.8°F3.2°C 26.6°F-3.0°C 64% 4.0 mph W6.4 kmh W 4.0 mph6.4 kmh 30.62 in1036.9 mb 0.00 in0.0 mm 0.00 in/hr0.0 mm/hr 0.01 in0.3 mm
03:12 PM 37.8°F3.2°C 27.1°F-2.7°C 65% 2.9 mph WNW4.7 kmh WNW 2.0 mph3.2 kmh 30.62 in1036.9 mb 0.00 in0.0 mm 0.00 in/hr0.0 mm/hr 0.01 in0.3 mm
03:07 PM 37.8°F3.2°C 27.1°F-2.7°C 65% 4.0 mph WNW6.4 kmh WNW 2.0 mph3.2 kmh 30.62 in1036.9 mb 0.00 in0.0 mm 0.00 in/hr0.0 mm/hr 0.01 in0.3 mm
03:02 PM 37.8°F3.2°C 27.1°F-2.7°C 65% 6.0 mph WNW9.7 kmh WNW 2.0 mph3.2 kmh 30.62 in1036.9 mb 0.00 in0.0 mm 0.00 in/hr0.0 mm/hr 0.01 in0.3 mm
02:57 PM 38.1°F3.4°C 27.0°F-2.8°C 64% 4.9 mph NNW7.9 kmh NNW 8.9 mph14.3 kmh 30.62 in1036.9 mb 0.00 in0.0 mm 0.00 in/hr0.0 mm/hr 0.01 in0.3 mm
02:52 PM 38.3°F3.5°C 26.8°F-2.9°C 63% 4.0 mph NW6.4 kmh NW 8.9 mph14.3 kmh 30.62 in1036.9 mb 0.00 in0.0 mm 0.00 in/hr0.0 mm/hr 0.01 in0.3 mm
02:47 PM 38.1°F3.4°C 27.0°F-2.8°C 64% 4.9 mph W7.9 kmh W 4.0 mph6.4 kmh 30.61 in1036.6 mb 0.00 in0.0 mm 0.00 in/hr0.0 mm/hr 0.01 in0.3 mm
02:42 PM 37.9°F3.3°C 26.1°F-3.3°C 62% 4.9 mph W7.9 kmh W 6.0 mph9.7 kmh 30.62 in1036.9 mb 0.00 in0.0 mm 0.00 in/hr0.0 mm/hr 0.01 in0.3 mm
02:37 PM 37.9°F3.3°C 26.4°F-3.1°C 63% 4.9 mph WSW7.9 kmh WSW 2.0 mph3.2 kmh 30.62 in1036.9 mb 0.00 in0.0 mm 0.00 in/hr0.0 mm/hr 0.01 in0.3 mm
02:32 PM 38.5°F3.6°C 26.6°F-3.0°C 62% 6.0 mph NNW9.7 kmh NNW 6.0 mph9.7 kmh 30.62 in1036.9 mb 0.00 in0.0 mm 0.00 in/hr0.0 mm/hr 0.01 in0.3 mm
02:27 PM 39.0°F3.9°C 26.8°F-2.9°C 61% 4.9 mph NW7.9 kmh NW 6.9 mph11.1 kmh 30.62 in1036.9 mb 0.00 in0.0 mm 0.00 in/hr0.0 mm/hr 0.01 in0.3 mm
02:22 PM 39.2°F4.0°C 27.3°F-2.6°C 62% 4.9 mph WNW7.9 kmh WNW 6.0 mph9.7 kmh 30.62 in1036.9 mb 0.00 in0.0 mm 0.00 in/hr0.0 mm/hr 0.01 in0.3 mm
02:17 PM 38.7°F3.7°C 27.1°F-2.7°C 63% 4.9 mph WNW7.9 kmh WNW 2.9 mph4.7 kmh 30.62 in1036.9 mb 0.00 in0.0 mm 0.00 in/hr0.0 mm/hr 0.01 in0.3 mm
02:12 PM 38.3°F3.5°C 26.4°F-3.1°C 62% 4.9 mph NW7.9 kmh NW 8.1 mph13.0 kmh 30.63 in1037.3 mb 0.00 in0.0 mm 0.00 in/hr0.0 mm/hr 0.01 in0.3 mm
02:07 PM 38.5°F3.6°C 27.0°F-2.8°C 63% 4.0 mph NW6.4 kmh NW 4.9 mph7.9 kmh 30.63 in1037.3 mb 0.00 in0.0 mm 0.00 in/hr0.0 mm/hr 0.01 in0.3 mm
02:02 PM 37.9°F3.3°C 27.7°F-2.4°C 66% 4.0 mph NW6.4 kmh NW 6.0 mph9.7 kmh 30.63 in1037.3 mb 0.00 in0.0 mm 0.00 in/hr0.0 mm/hr 0.01 in0.3 mm
01:57 PM 36.9°F2.7°C 26.2°F-3.2°C 65% 4.9 mph SW7.9 kmh SW 2.0 mph3.2 kmh 30.63 in1037.3 mb 0.00 in0.0 mm 0.00 in/hr0.0 mm/hr 0.01 in0.3 mm
01:52 PM 37.0°F2.8°C 26.1°F-3.3°C 64% 6.0 mph SW9.7 kmh SW 4.9 mph7.9 kmh 30.63 in1037.3 mb 0.00 in0.0 mm 0.00 in/hr0.0 mm/hr 0.01 in0.3 mm
01:47 PM 37.8°F3.2°C 26.6°F-3.0°C 64% 4.9 mph NW7.9 kmh NW 2.9 mph4.7 kmh 30.63 in1037.3 mb 0.00 in0.0 mm 0.00 in/hr0.0 mm/hr 0.01 in0.3 mm
01:42 PM 38.1°F3.4°C 27.9°F-2.3°C 66% 4.0 mph W6.4 kmh W 2.9 mph4.7 kmh 30.63 in1037.3 mb 0.00 in0.0 mm 0.00 in/hr0.0 mm/hr 0.01 in0.3 mm
01:37 PM 37.8°F3.2°C 27.9°F-2.3°C 67% 4.0 mph WNW6.4 kmh WNW 2.9 mph4.7 kmh 30.63 in1037.3 mb 0.00 in0.0 mm 0.00 in/hr0.0 mm/hr 0.01 in0.3 mm
01:32 PM 37.2°F2.9°C 27.0°F-2.8°C 66% 4.0 mph WSW6.4 kmh WSW 4.0 mph6.4 kmh 30.63 in1037.3 mb 0.00 in0.0 mm 0.00 in/hr0.0 mm/hr 0.01 in0.3 mm
01:27 PM 37.9°F3.3°C 27.1°F-2.7°C 65% 4.0 mph SE6.4 kmh SE 2.0 mph3.2 kmh 30.63 in1037.3 mb 0.00 in0.0 mm 0.00 in/hr0.0 mm/hr 0.01 in0.3 mm
01:22 PM 37.8°F3.2°C 28.2°F-2.1°C 68% 4.0 mph W6.4 kmh W 4.9 mph7.9 kmh 30.63 in1037.3 mb 0.00 in0.0 mm 0.00 in/hr0.0 mm/hr 0.01 in0.3 mm
01:17 PM 36.1°F2.3°C 26.6°F-3.0°C 68% 4.9 mph WSW7.9 kmh WSW 4.0 mph6.4 kmh 30.63 in1037.3 mb 0.00 in0.0 mm 0.00 in/hr0.0 mm/hr 0.01 in0.3 mm
01:12 PM 36.0°F2.2°C 26.4°F-3.1°C 68% 6.9 mph W11.1 kmh W 6.9 mph11.1 kmh 30.63 in1037.3 mb 0.00 in0.0 mm 0.00 in/hr0.0 mm/hr 0.01 in0.3 mm
01:07 PM 36.3°F2.4°C 26.8°F-2.9°C 68% 6.0 mph WNW9.7 kmh WNW 8.1 mph13.0 kmh 30.63 in1037.3 mb 0.00 in0.0 mm 0.00 in/hr0.0 mm/hr 0.01 in0.3 mm
01:02 PM 36.7°F2.6°C 27.1°F-2.7°C 68% 6.0 mph NW9.7 kmh NW 4.9 mph7.9 kmh 30.63 in1037.3 mb 0.00 in0.0 mm 0.00 in/hr0.0 mm/hr 0.01 in0.3 mm
12:57 PM 36.3°F2.4°C 27.1°F-2.7°C 69% 6.9 mph WNW11.1 kmh WNW 6.0 mph9.7 kmh 30.63 in1037.3 mb 0.00 in0.0 mm 0.00 in/hr0.0 mm/hr 0.01 in0.3 mm
12:52 PM 36.3°F2.4°C 26.4°F-3.1°C 67% 6.9 mph NW11.1 kmh NW 4.9 mph7.9 kmh 30.63 in1037.3 mb 0.00 in0.0 mm 0.00 in/hr0.0 mm/hr 0.01 in0.3 mm
12:47 PM 36.7°F2.6°C 26.4°F-3.1°C 66% 6.0 mph NW9.7 kmh NW 4.9 mph7.9 kmh 30.63 in1037.3 mb 0.00 in0.0 mm 0.00 in/hr0.0 mm/hr 0.01 in0.3 mm
12:42 PM 36.7°F2.6°C 26.4°F-3.1°C 66% 6.0 mph SW9.7 kmh SW 4.0 mph6.4 kmh 30.63 in1037.3 mb 0.00 in0.0 mm 0.00 in/hr0.0 mm/hr 0.01 in0.3 mm
12:37 PM 36.3°F2.4°C 26.1°F-3.3°C 66% 6.0 mph S9.7 kmh S 4.9 mph7.9 kmh 30.63 in1037.3 mb 0.00 in0.0 mm 0.00 in/hr0.0 mm/hr 0.01 in0.3 mm
12:32 PM 36.7°F2.6°C 27.1°F-2.7°C 68% 4.9 mph SW7.9 kmh SW 6.0 mph9.7 kmh 30.64 in1037.6 mb 0.00 in0.0 mm 0.00 in/hr0.0 mm/hr 0.01 in0.3 mm
12:27 PM 36.1°F2.3°C 26.6°F-3.0°C 68% 4.0 mph SW6.4 kmh SW 4.9 mph7.9 kmh 30.64 in1037.6 mb 0.00 in0.0 mm 0.00 in/hr0.0 mm/hr 0.01 in0.3 mm
12:22 PM 36.0°F2.2°C 26.4°F-3.1°C 68% 2.9 mph S4.7 kmh S 4.9 mph7.9 kmh 30.64 in1037.6 mb 0.00 in0.0 mm 0.00 in/hr0.0 mm/hr 0.01 in0.3 mm
12:17 PM 35.8°F2.1°C 26.6°F-3.0°C 69% 4.0 mph SSW6.4 kmh SSW 4.0 mph6.4 kmh 30.64 in1037.6 mb 0.00 in0.0 mm 0.00 in/hr0.0 mm/hr 0.01 in0.3 mm
12:12 PM 35.4°F1.9°C 25.9°F-3.4°C 68% 4.0 mph WSW6.4 kmh WSW 2.0 mph3.2 kmh 30.64 in1037.6 mb 0.00 in0.0 mm 0.00 in/hr0.0 mm/hr 0.01 in0.3 mm
12:07 PM 36.0°F2.2°C 28.4°F-2.0°C 74% 2.0 mph W3.2 kmh W 4.9 mph7.9 kmh 30.64 in1037.6 mb 0.00 in0.0 mm 0.00 in/hr0.0 mm/hr 0.01 in0.3 mm
12:02 PM 35.1°F1.7°C 27.3°F-2.6°C 73% 2.9 mph WSW4.7 kmh WSW 2.0 mph3.2 kmh 30.64 in1037.6 mb 0.00 in0.0 mm 0.00 in/hr0.0 mm/hr 0.01 in0.3 mm
11:57 AM 34.5°F1.4°C 26.8°F-2.9°C 73% 4.0 mph SSW6.4 kmh SSW 4.0 mph6.4 kmh 30.64 in1037.6 mb 0.00 in0.0 mm 0.00 in/hr0.0 mm/hr 0.01 in0.3 mm
11:52 AM 34.7°F1.5°C 27.3°F-2.6°C 74% 6.0 mph WNW9.7 kmh WNW 4.9 mph7.9 kmh 30.63 in1037.3 mb 0.00 in0.0 mm 0.00 in/hr0.0 mm/hr 0.01 in0.3 mm
11:47 AM 34.5°F1.4°C 27.1°F-2.7°C 74% 4.9 mph NW7.9 kmh NW 4.0 mph6.4 kmh 30.63 in1037.3 mb 0.00 in0.0 mm 0.00 in/hr0.0 mm/hr 0.01 in0.3 mm
11:42 AM 34.2°F1.2°C 26.8°F-2.9°C 74% 4.0 mph NW6.4 kmh NW 6.9 mph11.1 kmh 30.63 in1037.3 mb 0.00 in0.0 mm 0.00 in/hr0.0 mm/hr 0.01 in0.3 mm
11:37 AM 34.3°F1.3°C 27.3°F-2.6°C 75% 4.0 mph WSW6.4 kmh WSW 4.0 mph6.4 kmh 30.63 in1037.3 mb 0.00 in0.0 mm 0.00 in/hr0.0 mm/hr 0.01 in0.3 mm
11:32 AM 33.8°F1.0°C 26.8°F-2.9°C 75% 4.0 mph WNW6.4 kmh WNW 0.9 mph1.4 kmh 30.63 in1037.3 mb 0.00 in0.0 mm 0.00 in/hr0.0 mm/hr 0.01 in0.3 mm
11:27 AM 33.4°F0.8°C 27.0°F-2.8°C 77% 6.0 mph NW9.7 kmh NW 4.9 mph7.9 kmh 30.63 in1037.3 mb 0.00 in0.0 mm 0.00 in/hr0.0 mm/hr 0.01 in0.3 mm
11:22 AM 32.9°F0.5°C 26.8°F-2.9°C 78% 6.9 mph W11.1 kmh W 6.9 mph11.1 kmh 30.64 in1037.6 mb 0.00 in0.0 mm 0.00 in/hr0.0 mm/hr 0.01 in0.3 mm
11:17 AM 32.7°F0.4°C 27.0°F-2.8°C 79% 6.9 mph WNW11.1 kmh WNW 10.1 mph16.3 kmh 30.64 in1037.6 mb 0.00 in0.0 mm 0.00 in/hr0.0 mm/hr 0.01 in0.3 mm
11:12 AM 32.7°F0.4°C 27.0°F-2.8°C 79% 6.0 mph NW9.7 kmh NW 4.9 mph7.9 kmh 30.64 in1037.6 mb 0.00 in0.0 mm 0.00 in/hr0.0 mm/hr 0.01 in0.3 mm
11:07 AM 32.7°F0.4°C 27.0°F-2.8°C 79% 6.0 mph NW9.7 kmh NW 4.9 mph7.9 kmh 30.64 in1037.6 mb 0.00 in0.0 mm 0.00 in/hr0.0 mm/hr 0.01 in0.3 mm
11:02 AM 33.1°F0.6°C 27.3°F-2.6°C 79% 6.9 mph WNW11.1 kmh WNW 8.1 mph13.0 kmh 30.64 in1037.6 mb 0.00 in0.0 mm 0.00 in/hr0.0 mm/hr 0.01 in0.3 mm
10:57 AM 33.1°F0.6°C 27.0°F-2.8°C 78% 8.1 mph WNW13.0 kmh WNW 6.0 mph9.7 kmh 30.64 in1037.6 mb 0.00 in0.0 mm 0.00 in/hr0.0 mm/hr 0.01 in0.3 mm
10:47 AM 33.3°F0.7°C 27.1°F-2.7°C 78% 8.1 mph WNW13.0 kmh WNW 6.0 mph9.7 kmh 30.64 in1037.6 mb 0.00 in0.0 mm 0.00 in/hr0.0 mm/hr 0.01 in0.3 mm
10:42 AM 33.6°F0.9°C 27.5°F-2.5°C 78% 8.1 mph NW13.0 kmh NW 6.0 mph9.7 kmh 30.64 in1037.6 mb 0.00 in0.0 mm 0.00 in/hr0.0 mm/hr 0.01 in0.3 mm
10:37 AM 33.6°F0.9°C 27.5°F-2.5°C 78% 6.0 mph NW9.7 kmh NW 4.9 mph7.9 kmh 30.64 in1037.6 mb 0.00 in0.0 mm 0.00 in/hr0.0 mm/hr 0.01 in0.3 mm
10:32 AM 33.6°F0.9°C 27.9°F-2.3°C 79% 6.0 mph W9.7 kmh W 4.9 mph7.9 kmh 30.63 in1037.3 mb 0.00 in0.0 mm 0.00 in/hr0.0 mm/hr 0.01 in0.3 mm
10:27 AM 33.3°F0.7°C 27.5°F-2.5°C 79% 6.0 mph W9.7 kmh W 6.9 mph11.1 kmh 30.63 in1037.3 mb 0.00 in0.0 mm 0.00 in/hr0.0 mm/hr 0.01 in0.3 mm
10:22 AM 33.4°F0.8°C 27.9°F-2.3°C 80% 6.0 mph WNW9.7 kmh WNW 6.0 mph9.7 kmh 30.63 in1037.3 mb 0.00 in0.0 mm 0.00 in/hr0.0 mm/hr 0.01 in0.3 mm
10:17 AM 33.4°F0.8°C 28.2°F-2.1°C 81% 6.9 mph NW11.1 kmh NW 8.9 mph14.3 kmh 30.63 in1037.3 mb 0.00 in0.0 mm 0.00 in/hr0.0 mm/hr 0.01 in0.3 mm
10:12 AM 33.3°F0.7°C 28.4°F-2.0°C 82% 8.1 mph WNW13.0 kmh WNW 6.9 mph11.1 kmh 30.62 in1036.9 mb 0.00 in0.0 mm 0.00 in/hr0.0 mm/hr 0.01 in0.3 mm
10:07 AM 32.7°F0.4°C 27.9°F-2.3°C 82% 8.1 mph NW13.0 kmh NW 8.1 mph13.0 kmh 30.63 in1037.3 mb 0.00 in0.0 mm 0.00 in/hr0.0 mm/hr 0.01 in0.3 mm
10:02 AM 32.5°F0.3°C 28.0°F-2.2°C 83% 8.9 mph WNW14.3 kmh WNW 8.9 mph14.3 kmh 30.62 in1036.9 mb 0.00 in0.0 mm 0.00 in/hr0.0 mm/hr 0.01 in0.3 mm
09:57 AM 32.4°F0.2°C 28.0°F-2.2°C 84% 8.9 mph NW14.3 kmh NW 10.1 mph16.3 kmh 30.62 in1036.9 mb 0.00 in0.0 mm 0.00 in/hr0.0 mm/hr 0.01 in0.3 mm
09:52 AM 32.2°F0.1°C 28.4°F-2.0°C 86% 8.1 mph WNW13.0 kmh WNW 8.9 mph14.3 kmh 30.62 in1036.9 mb 0.00 in0.0 mm 0.00 in/hr0.0 mm/hr 0.01 in0.3 mm
09:47 AM 32.0°F0.0°C 28.2°F-2.1°C 86% 6.9 mph WNW11.1 kmh WNW 8.9 mph14.3 kmh 30.62 in1036.9 mb 0.00 in0.0 mm 0.00 in/hr0.0 mm/hr 0.01 in0.3 mm
09:42 AM 32.0°F0.0°C 28.2°F-2.1°C 86% 8.1 mph W13.0 kmh W 8.1 mph13.0 kmh 30.62 in1036.9 mb 0.00 in0.0 mm 0.00 in/hr0.0 mm/hr 0.01 in0.3 mm
09:37 AM 32.2°F0.1°C 28.4°F-2.0°C 86% 8.1 mph NW13.0 kmh NW 11.0 mph17.7 kmh 30.62 in1036.9 mb 0.00 in0.0 mm 0.00 in/hr0.0 mm/hr 0.01 in0.3 mm
09:32 AM 32.2°F0.1°C 28.4°F-2.0°C 86% 6.9 mph NW11.1 kmh NW 8.1 mph13.0 kmh 30.62 in1036.9 mb 0.00 in0.0 mm 0.00 in/hr0.0 mm/hr 0.01 in0.3 mm
09:27 AM 32.2°F0.1°C 28.8°F-1.8°C 87% 6.9 mph N11.1 kmh N 4.9 mph7.9 kmh 30.62 in1036.9 mb 0.00 in0.0 mm 0.00 in/hr0.0 mm/hr 0.01 in0.3 mm
09:22 AM 31.8°F-0.1°C 28.8°F-1.8°C 88% 6.0 mph NW9.7 kmh NW 8.1 mph13.0 kmh 30.62 in1036.9 mb 0.00 in0.0 mm 0.00 in/hr0.0 mm/hr 0.00 in0.0 mm
09:17 AM 31.6°F-0.2°C 28.2°F-2.1°C 87% 6.0 mph WNW9.7 kmh WNW 8.1 mph13.0 kmh 30.62 in1036.9 mb 0.00 in0.0 mm 0.00 in/hr0.0 mm/hr 0.00 in0.0 mm
09:12 AM 31.6°F-0.2°C 28.6°F-1.9°C 88% 6.0 mph WNW9.7 kmh WNW 6.9 mph11.1 kmh 30.62 in1036.9 mb 0.00 in0.0 mm 0.00 in/hr0.0 mm/hr 0.00 in0.0 mm
09:07 AM 31.5°F-0.3°C 28.4°F-2.0°C 88% 6.9 mph WNW11.1 kmh WNW 8.1 mph13.0 kmh 30.62 in1036.9 mb 0.00 in0.0 mm 0.00 in/hr0.0 mm/hr 0.00 in0.0 mm
09:02 AM 31.5°F-0.3°C 28.4°F-2.0°C 88% 6.0 mph WNW9.7 kmh WNW 4.0 mph6.4 kmh 30.62 in1036.9 mb 0.00 in0.0 mm 0.00 in/hr0.0 mm/hr 0.00 in0.0 mm
08:57 AM 31.1°F-0.5°C 28.0°F-2.2°C 88% 4.9 mph W7.9 kmh W 4.9 mph7.9 kmh 30.62 in1036.9 mb 0.00 in0.0 mm 0.00 in/hr0.0 mm/hr 0.00 in0.0 mm
08:52 AM 30.7°F-0.7°C 27.7°F-2.4°C 88% 4.0 mph WNW6.4 kmh WNW 6.0 mph9.7 kmh 30.62 in1036.9 mb 0.00 in0.0 mm 0.00 in/hr0.0 mm/hr 0.00 in0.0 mm
08:47 AM 30.6°F-0.8°C 27.5°F-2.5°C 88% 4.0 mph NW6.4 kmh NW 4.0 mph6.4 kmh 30.62 in1036.9 mb 0.00 in0.0 mm 0.00 in/hr0.0 mm/hr 0.00 in0.0 mm
08:42 AM 30.6°F-0.8°C 27.5°F-2.5°C 88% 4.9 mph WNW7.9 kmh WNW 4.0 mph6.4 kmh 30.62 in1036.9 mb 0.00 in0.0 mm 0.00 in/hr0.0 mm/hr 0.00 in0.0 mm
08:37 AM 30.6°F-0.8°C 27.5°F-2.5°C 88% 6.0 mph NW9.7 kmh NW 2.9 mph4.7 kmh 30.61 in1036.6 mb 0.00 in0.0 mm 0.00 in/hr0.0 mm/hr 0.00 in0.0 mm
08:32 AM 30.6°F-0.8°C 27.5°F-2.5°C 88% 4.9 mph NW7.9 kmh NW 4.9 mph7.9 kmh 30.61 in1036.6 mb 0.00 in0.0 mm 0.00 in/hr0.0 mm/hr 0.00 in0.0 mm
08:27 AM 30.4°F-0.9°C 27.3°F-2.6°C 88% 4.9 mph NW7.9 kmh NW 6.0 mph9.7 kmh 30.61 in1036.6 mb 0.00 in0.0 mm 0.00 in/hr0.0 mm/hr 0.00 in0.0 mm
08:22 AM 30.4°F-0.9°C 27.3°F-2.6°C 88% 6.0 mph NW9.7 kmh NW 4.9 mph7.9 kmh 30.61 in1036.6 mb 0.00 in0.0 mm 0.00 in/hr0.0 mm/hr 0.00 in0.0 mm
08:17 AM 30.4°F-0.9°C 27.3°F-2.6°C 88% 6.0 mph NNW9.7 kmh NNW 2.9 mph4.7 kmh 30.61 in1036.6 mb 0.00 in0.0 mm 0.00 in/hr0.0 mm/hr 0.00 in0.0 mm
08:12 AM 30.4°F-0.9°C 27.3°F-2.6°C 88% 4.9 mph W7.9 kmh W 6.0 mph9.7 kmh 30.61 in1036.6 mb 0.00 in0.0 mm 0.00 in/hr0.0 mm/hr 0.00 in0.0 mm
08:07 AM 30.4°F-0.9°C 27.0°F-2.8°C 87% 4.0 mph WNW6.4 kmh WNW 6.9 mph11.1 kmh 30.60 in1036.2 mb 0.00 in0.0 mm 0.00 in/hr0.0 mm/hr 0.00 in0.0 mm
08:02 AM 30.4°F-0.9°C 27.0°F-2.8°C 87% 4.0 mph NW6.4 kmh NW 8.1 mph13.0 kmh 30.60 in1036.2 mb 0.00 in0.0 mm 0.00 in/hr0.0 mm/hr 0.00 in0.0 mm
07:57 AM 30.4°F-0.9°C 27.0°F-2.8°C 87% 4.0 mph NW6.4 kmh NW 2.0 mph3.2 kmh 30.60 in1036.2 mb 0.00 in0.0 mm 0.00 in/hr0.0 mm/hr 0.00 in0.0 mm
07:52 AM 30.4°F-0.9°C 27.0°F-2.8°C 87% 4.0 mph WNW6.4 kmh WNW -- 30.60 in1036.2 mb 0.00 in0.0 mm 0.00 in/hr0.0 mm/hr 0.00 in0.0 mm
07:47 AM 30.4°F-0.9°C 27.0°F-2.8°C 87% 4.0 mph NW6.4 kmh NW 6.0 mph9.7 kmh 30.60 in1036.2 mb 0.00 in0.0 mm 0.00 in/hr0.0 mm/hr 0.00 in0.0 mm
07:42 AM 30.4°F-0.9°C 27.0°F-2.8°C 87% 4.0 mph WSW6.4 kmh WSW 2.0 mph3.2 kmh 30.60 in1036.2 mb 0.00 in0.0 mm 0.00 in/hr0.0 mm/hr 0.00 in0.0 mm
07:37 AM 30.4°F-0.9°C 27.0°F-2.8°C 87% 4.0 mph W6.4 kmh W 4.0 mph6.4 kmh 30.60 in1036.2 mb 0.00 in0.0 mm 0.00 in/hr0.0 mm/hr 0.00 in0.0 mm
07:32 AM 30.4°F-0.9°C 27.0°F-2.8°C 87% 2.9 mph NW4.7 kmh NW 8.9 mph14.3 kmh 30.60 in1036.2 mb 0.00 in0.0 mm 0.00 in/hr0.0 mm/hr 0.00 in0.0 mm
07:27 AM 30.4°F-0.9°C 27.0°F-2.8°C 87% 2.9 mph NW4.7 kmh NW 4.0 mph6.4 kmh 30.60 in1036.2 mb 0.00 in0.0 mm 0.00 in/hr0.0 mm/hr 0.00 in0.0 mm
07:22 AM 30.4°F-0.9°C 26.8°F-2.9°C 86% 2.9 mph W4.7 kmh W 2.9 mph4.7 kmh 30.60 in1036.2 mb 0.00 in0.0 mm 0.00 in/hr0.0 mm/hr 0.00 in0.0 mm
07:17 AM 30.4°F-0.9°C 26.8°F-2.9°C 86% 2.9 mph WNW4.7 kmh WNW 2.9 mph4.7 kmh 30.60 in1036.2 mb 0.00 in0.0 mm 0.00 in/hr0.0 mm/hr 0.00 in0.0 mm
07:07 AM 30.4°F-0.9°C 26.8°F-2.9°C 86% 2.9 mph NW4.7 kmh NW 2.0 mph3.2 kmh 30.59 in1035.9 mb 0.00 in0.0 mm 0.00 in/hr0.0 mm/hr 0.00 in0.0 mm
07:02 AM 30.4°F-0.9°C 26.4°F-3.1°C 85% 2.9 mph WNW4.7 kmh WNW 0.9 mph1.4 kmh 30.59 in1035.9 mb 0.00 in0.0 mm 0.00 in/hr0.0 mm/hr 0.00 in0.0 mm
06:57 AM 30.6°F-0.8°C 26.6°F-3.0°C 85% 2.9 mph NW4.7 kmh NW 4.9 mph7.9 kmh 30.59 in1035.9 mb 0.00 in0.0 mm 0.00 in/hr0.0 mm/hr 0.00 in0.0 mm
06:52 AM 30.4°F-0.9°C 26.4°F-3.1°C 85% 2.9 mph WNW4.7 kmh WNW 2.0 mph3.2 kmh 30.59 in1035.9 mb 0.00 in0.0 mm 0.00 in/hr0.0 mm/hr 0.00 in0.0 mm
06:47 AM 30.6°F-0.8°C 26.6°F-3.0°C 85% 2.0 mph NW3.2 kmh NW -- 30.59 in1035.9 mb 0.00 in0.0 mm 0.00 in/hr0.0 mm/hr 0.00 in0.0 mm
06:42 AM 30.6°F-0.8°C 26.2°F-3.2°C 84% 2.9 mph NW4.7 kmh NW 4.0 mph6.4 kmh 30.58 in1035.6 mb 0.00 in0.0 mm 0.00 in/hr0.0 mm/hr 0.00 in0.0 mm
06:37 AM 30.6°F-0.8°C 26.2°F-3.2°C 84% 2.9 mph WNW4.7 kmh WNW 2.0 mph3.2 kmh 30.58 in1035.6 mb 0.00 in0.0 mm 0.00 in/hr0.0 mm/hr 0.00 in0.0 mm
06:32 AM 30.6°F-0.8°C 26.2°F-3.2°C 84% 2.9 mph W4.7 kmh W 4.9 mph7.9 kmh 30.58 in1035.6 mb 0.00 in0.0 mm 0.00 in/hr0.0 mm/hr 0.00 in0.0 mm
06:27 AM 30.6°F-0.8°C 26.2°F-3.2°C 84% 2.9 mph NW4.7 kmh NW 2.0 mph3.2 kmh 30.58 in1035.6 mb 0.00 in0.0 mm 0.00 in/hr0.0 mm/hr 0.00 in0.0 mm
06:22 AM 30.6°F-0.8°C 26.1°F-3.3°C 83% 2.9 mph NW4.7 kmh NW 2.9 mph4.7 kmh 30.58 in1035.6 mb 0.00 in0.0 mm 0.00 in/hr0.0 mm/hr 0.00 in0.0 mm
06:17 AM 30.4°F-0.9°C 26.1°F-3.3°C 84% 4.0 mph WSW6.4 kmh WSW 4.0 mph6.4 kmh 30.58 in1035.6 mb 0.00 in0.0 mm 0.00 in/hr0.0 mm/hr 0.00 in0.0 mm
06:12 AM 30.4°F-0.9°C 26.1°F-3.3°C 84% 4.0 mph WNW6.4 kmh WNW 4.0 mph6.4 kmh 30.58 in1035.6 mb 0.00 in0.0 mm 0.00 in/hr0.0 mm/hr 0.00 in0.0 mm
06:07 AM 30.4°F-0.9°C 26.1°F-3.3°C 84% 4.9 mph W7.9 kmh W 4.0 mph6.4 kmh 30.58 in1035.6 mb 0.00 in0.0 mm 0.00 in/hr0.0 mm/hr 0.00 in0.0 mm
06:02 AM 30.4°F-0.9°C 26.4°F-3.1°C 85% 4.9 mph NW7.9 kmh NW 4.9 mph7.9 kmh 30.58 in1035.6 mb 0.00 in0.0 mm 0.00 in/hr0.0 mm/hr 0.00 in0.0 mm
05:57 AM 30.4°F-0.9°C 26.4°F-3.1°C 85% 4.9 mph WNW7.9 kmh WNW 6.0 mph9.7 kmh 30.58 in1035.6 mb 0.00 in0.0 mm 0.00 in/hr0.0 mm/hr 0.00 in0.0 mm
05:52 AM 30.4°F-0.9°C 26.8°F-2.9°C 86% 4.9 mph WNW7.9 kmh WNW 6.0 mph9.7 kmh 30.57 in1035.2 mb 0.00 in0.0 mm 0.00 in/hr0.0 mm/hr 0.00 in0.0 mm
05:47 AM 30.6°F-0.8°C 27.0°F-2.8°C 86% 4.9 mph W7.9 kmh W 4.0 mph6.4 kmh 30.57 in1035.2 mb 0.00 in0.0 mm 0.00 in/hr0.0 mm/hr 0.00 in0.0 mm
05:42 AM 30.6°F-0.8°C 27.1°F-2.7°C 87% 4.9 mph W7.9 kmh W 4.9 mph7.9 kmh 30.57 in1035.2 mb 0.00 in0.0 mm 0.00 in/hr0.0 mm/hr 0.00 in0.0 mm
05:37 AM 30.6°F-0.8°C 27.1°F-2.7°C 87% 4.9 mph NW7.9 kmh NW 6.9 mph11.1 kmh 30.57 in1035.2 mb 0.00 in0.0 mm 0.00 in/hr0.0 mm/hr 0.00 in0.0 mm
05:32 AM 30.6°F-0.8°C 27.1°F-2.7°C 87% 6.0 mph WNW9.7 kmh WNW 6.9 mph11.1 kmh 30.57 in1035.2 mb 0.00 in0.0 mm 0.00 in/hr0.0 mm/hr 0.00 in0.0 mm
05:27 AM 30.6°F-0.8°C 27.1°F-2.7°C 87% 6.0 mph WNW9.7 kmh WNW 2.0 mph3.2 kmh 30.57 in1035.2 mb 0.00 in0.0 mm 0.00 in/hr0.0 mm/hr 0.00 in0.0 mm
05:22 AM 30.6°F-0.8°C 27.1°F-2.7°C 87% 4.9 mph WNW7.9 kmh WNW 6.9 mph11.1 kmh 30.57 in1035.2 mb 0.00 in0.0 mm 0.00 in/hr0.0 mm/hr 0.00 in0.0 mm
05:17 AM 30.6°F-0.8°C 27.1°F-2.7°C 87% 4.9 mph NW7.9 kmh NW 4.0 mph6.4 kmh 30.56 in1034.9 mb 0.00 in0.0 mm 0.00 in/hr0.0 mm/hr 0.00 in0.0 mm
05:12 AM 30.6°F-0.8°C 27.1°F-2.7°C 87% 4.9 mph W7.9 kmh W 6.9 mph11.1 kmh 30.56 in1034.9 mb 0.00 in0.0 mm 0.00 in/hr0.0 mm/hr 0.00 in0.0 mm
05:07 AM 30.6°F-0.8°C 27.1°F-2.7°C 87% 4.9 mph NW7.9 kmh NW 4.9 mph7.9 kmh 30.56 in1034.9 mb 0.00 in0.0 mm 0.00 in/hr0.0 mm/hr 0.00 in0.0 mm
05:02 AM 30.6°F-0.8°C 27.1°F-2.7°C 87% 6.0 mph W9.7 kmh W 2.0 mph3.2 kmh 30.56 in1034.9 mb 0.00 in0.0 mm 0.00 in/hr0.0 mm/hr 0.00 in0.0 mm
04:57 AM 30.6°F-0.8°C 27.1°F-2.7°C 87% 6.9 mph NW11.1 kmh NW 4.0 mph6.4 kmh 30.56 in1034.9 mb 0.00 in0.0 mm 0.00 in/hr0.0 mm/hr 0.00 in0.0 mm
04:47 AM 30.6°F-0.8°C 27.5°F-2.5°C 88% 6.9 mph WNW11.1 kmh WNW 6.9 mph11.1 kmh 30.56 in1034.9 mb 0.00 in0.0 mm 0.00 in/hr0.0 mm/hr 0.00 in0.0 mm
04:42 AM 30.7°F-0.7°C 27.7°F-2.4°C 88% 6.0 mph WNW9.7 kmh WNW 6.9 mph11.1 kmh 30.56 in1034.9 mb 0.00 in0.0 mm 0.00 in/hr0.0 mm/hr 0.00 in0.0 mm
04:37 AM 30.6°F-0.8°C 27.5°F-2.5°C 88% 6.0 mph NW9.7 kmh NW 6.9 mph11.1 kmh 30.56 in1034.9 mb 0.00 in0.0 mm 0.00 in/hr0.0 mm/hr 0.00 in0.0 mm
04:32 AM 30.6°F-0.8°C 27.5°F-2.5°C 88% 6.0 mph WNW9.7 kmh WNW 4.9 mph7.9 kmh 30.56 in1034.9 mb 0.00 in0.0 mm 0.00 in/hr0.0 mm/hr 0.00 in0.0 mm
04:27 AM 30.7°F-0.7°C 27.7°F-2.4°C 88% 6.0 mph NW9.7 kmh NW 10.1 mph16.3 kmh 30.56 in1034.9 mb 0.00 in0.0 mm 0.00 in/hr0.0 mm/hr 0.00 in0.0 mm
04:22 AM 30.7°F-0.7°C 27.7°F-2.4°C 88% 6.9 mph NW11.1 kmh NW 4.0 mph6.4 kmh 30.56 in1034.9 mb 0.00 in0.0 mm 0.00 in/hr0.0 mm/hr 0.00 in0.0 mm
04:17 AM 30.7°F-0.7°C 27.7°F-2.4°C 88% 6.9 mph W11.1 kmh W 4.0 mph6.4 kmh 30.56 in1034.9 mb 0.00 in0.0 mm 0.00 in/hr0.0 mm/hr 0.00 in0.0 mm
04:12 AM 30.7°F-0.7°C 27.7°F-2.4°C 88% 6.9 mph WNW11.1 kmh WNW 8.1 mph13.0 kmh 30.56 in1034.9 mb 0.00 in0.0 mm 0.00 in/hr0.0 mm/hr 0.00 in0.0 mm
04:07 AM 30.7°F-0.7°C 27.7°F-2.4°C 88% 6.9 mph NW11.1 kmh NW 4.9 mph7.9 kmh 30.56 in1034.9 mb 0.00 in0.0 mm 0.00 in/hr0.0 mm/hr 0.00 in0.0 mm
04:02 AM 30.7°F-0.7°C 27.7°F-2.4°C 88% 6.9 mph WNW11.1 kmh WNW 8.1 mph13.0 kmh 30.56 in1034.9 mb 0.00 in0.0 mm 0.00 in/hr0.0 mm/hr 0.00 in0.0 mm
03:57 AM 30.7°F-0.7°C 27.7°F-2.4°C 88% 6.0 mph NW9.7 kmh NW 4.9 mph7.9 kmh 30.55 in1034.5 mb 0.00 in0.0 mm 0.00 in/hr0.0 mm/hr 0.00 in0.0 mm
03:52 AM 30.7°F-0.7°C 27.7°F-2.4°C 88% 6.0 mph NW9.7 kmh NW 6.0 mph9.7 kmh 30.55 in1034.5 mb 0.00 in0.0 mm 0.00 in/hr0.0 mm/hr 0.00 in0.0 mm
03:47 AM 30.9°F-0.6°C 27.9°F-2.3°C 88% 6.0 mph W9.7 kmh W 11.0 mph17.7 kmh 30.55 in1034.5 mb 0.00 in0.0 mm 0.00 in/hr0.0 mm/hr 0.00 in0.0 mm
03:42 AM 30.9°F-0.6°C 27.5°F-2.5°C 87% 6.0 mph NW9.7 kmh NW 4.0 mph6.4 kmh 30.55 in1034.5 mb 0.00 in0.0 mm 0.00 in/hr0.0 mm/hr 0.00 in0.0 mm
03:37 AM 30.9°F-0.6°C 27.5°F-2.5°C 87% 4.9 mph WNW7.9 kmh WNW 6.9 mph11.1 kmh 30.55 in1034.5 mb 0.00 in0.0 mm 0.00 in/hr0.0 mm/hr 0.00 in0.0 mm
03:32 AM 30.9°F-0.6°C 27.5°F-2.5°C 87% 6.0 mph WNW9.7 kmh WNW 4.9 mph7.9 kmh 30.55 in1034.5 mb 0.00 in0.0 mm 0.00 in/hr0.0 mm/hr 0.00 in0.0 mm
03:27 AM 30.9°F-0.6°C 27.5°F-2.5°C 87% 6.9 mph NW11.1 kmh NW 10.1 mph16.3 kmh 30.55 in1034.5 mb 0.00 in0.0 mm 0.00 in/hr0.0 mm/hr 0.00 in0.0 mm
03:22 AM 30.9°F-0.6°C 27.5°F-2.5°C 87% 6.9 mph NW11.1 kmh NW 8.9 mph14.3 kmh 30.55 in1034.5 mb 0.00 in0.0 mm 0.00 in/hr0.0 mm/hr 0.00 in0.0 mm
03:17 AM 30.9°F-0.6°C 27.5°F-2.5°C 87% 6.9 mph WNW11.1 kmh WNW 6.9 mph11.1 kmh 30.55 in1034.5 mb 0.00 in0.0 mm 0.00 in/hr0.0 mm/hr 0.00 in0.0 mm
03:12 AM 31.1°F-0.5°C 27.7°F-2.4°C 87% 6.0 mph NW9.7 kmh NW 6.0 mph9.7 kmh 30.55 in1034.5 mb 0.00 in0.0 mm 0.00 in/hr0.0 mm/hr 0.00 in0.0 mm
03:07 AM 31.1°F-0.5°C 27.7°F-2.4°C 87% 4.9 mph NW7.9 kmh NW 10.1 mph16.3 kmh 30.55 in1034.5 mb 0.00 in0.0 mm 0.00 in/hr0.0 mm/hr 0.00 in0.0 mm
03:02 AM 31.1°F-0.5°C 27.3°F-2.6°C 86% 4.0 mph WNW6.4 kmh WNW 4.0 mph6.4 kmh 30.54 in1034.2 mb 0.00 in0.0 mm 0.00 in/hr0.0 mm/hr 0.00 in0.0 mm
02:57 AM 30.9°F-0.6°C 27.1°F-2.7°C 86% 4.0 mph W6.4 kmh W 4.0 mph6.4 kmh 30.54 in1034.2 mb 0.00 in0.0 mm 0.00 in/hr0.0 mm/hr 0.00 in0.0 mm
02:52 AM 30.9°F-0.6°C 27.1°F-2.7°C 86% 4.0 mph WNW6.4 kmh WNW 4.9 mph7.9 kmh 30.54 in1034.2 mb 0.00 in0.0 mm 0.00 in/hr0.0 mm/hr 0.00 in0.0 mm
02:47 AM 30.9°F-0.6°C 27.1°F-2.7°C 86% 4.0 mph NW6.4 kmh NW 4.0 mph6.4 kmh 30.54 in1034.2 mb 0.00 in0.0 mm 0.00 in/hr0.0 mm/hr 0.00 in0.0 mm
02:42 AM 30.9°F-0.6°C 27.1°F-2.7°C 86% 4.9 mph NW7.9 kmh NW 4.9 mph7.9 kmh 30.54 in1034.2 mb 0.00 in0.0 mm 0.00 in/hr0.0 mm/hr 0.00 in0.0 mm
02:37 AM 30.9°F-0.6°C 27.1°F-2.7°C 86% 6.0 mph WNW9.7 kmh WNW 2.0 mph3.2 kmh 30.54 in1034.2 mb 0.00 in0.0 mm 0.00 in/hr0.0 mm/hr 0.00 in0.0 mm
02:32 AM 30.9°F-0.6°C 27.1°F-2.7°C 86% 6.0 mph W9.7 kmh W 6.0 mph9.7 kmh 30.54 in1034.2 mb 0.00 in0.0 mm 0.00 in/hr0.0 mm/hr 0.00 in0.0 mm
02:27 AM 30.9°F-0.6°C 27.1°F-2.7°C 86% 4.9 mph WNW7.9 kmh WNW 6.9 mph11.1 kmh 30.54 in1034.2 mb 0.00 in0.0 mm 0.00 in/hr0.0 mm/hr 0.00 in0.0 mm
02:22 AM 30.9°F-0.6°C 27.1°F-2.7°C 86% 4.9 mph NW7.9 kmh NW 4.9 mph7.9 kmh 30.54 in1034.2 mb 0.00 in0.0 mm 0.00 in/hr0.0 mm/hr 0.00 in0.0 mm
02:17 AM 30.9°F-0.6°C 27.0°F-2.8°C 85% 4.9 mph NW7.9 kmh NW 4.0 mph6.4 kmh 30.54 in1034.2 mb 0.00 in0.0 mm 0.00 in/hr0.0 mm/hr 0.00 in0.0 mm
02:12 AM 30.9°F-0.6°C 27.0°F-2.8°C 85% 4.9 mph W7.9 kmh W 2.9 mph4.7 kmh 30.54 in1034.2 mb 0.00 in0.0 mm 0.00 in/hr0.0 mm/hr 0.00 in0.0 mm
02:07 AM 30.9°F-0.6°C 27.0°F-2.8°C 85% 4.9 mph NW7.9 kmh NW 2.0 mph3.2 kmh 30.54 in1034.2 mb 0.00 in0.0 mm 0.00 in/hr0.0 mm/hr 0.00 in0.0 mm
02:02 AM 31.1°F-0.5°C 27.1°F-2.7°C 85% 4.9 mph W7.9 kmh W 6.0 mph9.7 kmh 30.54 in1034.2 mb 0.00 in0.0 mm 0.00 in/hr0.0 mm/hr 0.00 in0.0 mm
01:57 AM 31.1°F-0.5°C 27.1°F-2.7°C 85% 4.9 mph WSW7.9 kmh WSW 2.9 mph4.7 kmh 30.54 in1034.2 mb 0.00 in0.0 mm 0.00 in/hr0.0 mm/hr 0.00 in0.0 mm
01:52 AM 31.1°F-0.5°C 27.1°F-2.7°C 85% 6.0 mph WSW9.7 kmh WSW 2.9 mph4.7 kmh 30.54 in1034.2 mb 0.00 in0.0 mm 0.00 in/hr0.0 mm/hr 0.00 in0.0 mm
01:47 AM 31.1°F-0.5°C 27.1°F-2.7°C 85% 6.0 mph WNW9.7 kmh WNW 4.0 mph6.4 kmh 30.54 in1034.2 mb 0.00 in0.0 mm 0.00 in/hr0.0 mm/hr 0.00 in0.0 mm
01:42 AM 31.3°F-0.4°C 27.3°F-2.6°C 85% 6.0 mph W9.7 kmh W 4.9 mph7.9 kmh 30.54 in1034.2 mb 0.00 in0.0 mm 0.00 in/hr0.0 mm/hr 0.00 in0.0 mm
01:37 AM 31.1°F-0.5°C 27.1°F-2.7°C 85% 4.9 mph WNW7.9 kmh WNW 4.9 mph7.9 kmh 30.54 in1034.2 mb 0.00 in0.0 mm 0.00 in/hr0.0 mm/hr 0.00 in0.0 mm
01:32 AM 31.1°F-0.5°C 27.1°F-2.7°C 85% 4.9 mph W7.9 kmh W 8.9 mph14.3 kmh 30.53 in1033.9 mb 0.00 in0.0 mm 0.00 in/hr0.0 mm/hr 0.00 in0.0 mm
01:27 AM 31.3°F-0.4°C 27.3°F-2.6°C 85% 6.0 mph NW9.7 kmh NW 8.1 mph13.0 kmh 30.53 in1033.9 mb 0.00 in0.0 mm 0.00 in/hr0.0 mm/hr 0.00 in0.0 mm
01:22 AM 31.3°F-0.4°C 27.5°F-2.5°C 86% 6.0 mph WSW9.7 kmh WSW 4.0 mph6.4 kmh 30.53 in1033.9 mb 0.00 in0.0 mm 0.00 in/hr0.0 mm/hr 0.00 in0.0 mm
01:17 AM 31.5°F-0.3°C 27.5°F-2.5°C 85% 6.0 mph W9.7 kmh W 2.9 mph4.7 kmh 30.53 in1033.9 mb 0.00 in0.0 mm 0.00 in/hr0.0 mm/hr 0.00 in0.0 mm
01:12 AM 31.5°F-0.3°C 27.7°F-2.4°C 86% 6.0 mph NW9.7 kmh NW 10.1 mph16.3 kmh 30.53 in1033.9 mb 0.00 in0.0 mm 0.00 in/hr0.0 mm/hr 0.00 in0.0 mm
01:07 AM 31.5°F-0.3°C 27.7°F-2.4°C 86% 6.0 mph WNW9.7 kmh WNW 8.9 mph14.3 kmh 30.52 in1033.5 mb 0.00 in0.0 mm 0.00 in/hr0.0 mm/hr 0.00 in0.0 mm
01:02 AM 31.6°F-0.2°C 27.9°F-2.3°C 86% 4.9 mph NNW7.9 kmh NNW 6.0 mph9.7 kmh 30.53 in1033.9 mb 0.00 in0.0 mm 0.00 in/hr0.0 mm/hr 0.00 in0.0 mm
12:57 AM 31.6°F-0.2°C 27.9°F-2.3°C 86% 4.9 mph NW7.9 kmh NW 2.0 mph3.2 kmh 30.53 in1033.9 mb 0.00 in0.0 mm 0.00 in/hr0.0 mm/hr 0.00 in0.0 mm
12:52 AM 31.6°F-0.2°C 27.9°F-2.3°C 86% 4.0 mph NW6.4 kmh NW 4.9 mph7.9 kmh 30.52 in1033.5 mb 0.00 in0.0 mm 0.00 in/hr0.0 mm/hr 0.00 in0.0 mm
12:47 AM 31.6°F-0.2°C 27.9°F-2.3°C 86% 4.0 mph NW6.4 kmh NW 2.0 mph3.2 kmh 30.53 in1033.9 mb 0.00 in0.0 mm 0.00 in/hr0.0 mm/hr 0.00 in0.0 mm
12:42 AM 31.6°F-0.2°C 28.2°F-2.1°C 87% 4.9 mph NW7.9 kmh NW 4.0 mph6.4 kmh 30.53 in1033.9 mb 0.00 in0.0 mm 0.00 in/hr0.0 mm/hr 0.00 in0.0 mm
12:37 AM 31.6°F-0.2°C 28.2°F-2.1°C 87% 6.0 mph WSW9.7 kmh WSW 4.0 mph6.4 kmh 30.53 in1033.9 mb 0.00 in0.0 mm 0.00 in/hr0.0 mm/hr 0.00 in0.0 mm
12:32 AM 31.6°F-0.2°C 28.2°F-2.1°C 87% 6.9 mph WNW11.1 kmh WNW 6.0 mph9.7 kmh 30.53 in1033.9 mb 0.00 in0.0 mm 0.00 in/hr0.0 mm/hr 0.00 in0.0 mm
12:27 AM 31.6°F-0.2°C 28.2°F-2.1°C 87% 6.0 mph NW9.7 kmh NW 4.9 mph7.9 kmh 30.52 in1033.5 mb 0.00 in0.0 mm 0.00 in/hr0.0 mm/hr 0.00 in0.0 mm
12:22 AM 31.8°F-0.1°C 28.4°F-2.0°C 87% 4.9 mph WNW7.9 kmh WNW 6.0 mph9.7 kmh 30.52 in1033.5 mb 0.00 in0.0 mm 0.00 in/hr0.0 mm/hr 0.00 in0.0 mm
12:17 AM 31.6°F-0.2°C 28.2°F-2.1°C 87% 6.0 mph WSW9.7 kmh WSW 6.0 mph9.7 kmh 30.52 in1033.5 mb 0.00 in0.0 mm 0.00 in/hr0.0 mm/hr 0.00 in0.0 mm
12:12 AM 31.8°F-0.1°C 28.4°F-2.0°C 87% 6.0 mph WNW9.7 kmh WNW 6.9 mph11.1 kmh 30.52 in1033.5 mb 0.00 in0.0 mm 0.00 in/hr0.0 mm/hr 0.00 in0.0 mm
12:07 AM 31.8°F-0.1°C 28.4°F-2.0°C 87% 4.9 mph NW7.9 kmh NW 8.1 mph13.0 kmh 30.52 in1033.5 mb 0.00 in0.0 mm 0.00 in/hr0.0 mm/hr 0.00 in0.0 mm
12:02 AM 31.8°F-0.1°C 28.4°F-2.0°C 87% 4.9 mph W7.9 kmh W 2.9 mph4.7 kmh 30.52 in1033.5 mb 0.00 in0.0 mm 0.00 in/hr0.0 mm/hr 0.26 in6.6 mm